createdAt,value
2023-10-28T00:01:03.656Z,14.58
2023-10-28T00:03:31.383Z,14.61
2023-10-28T00:05:58.946Z,14.60
2023-10-28T00:08:26.519Z,14.56
2023-10-28T00:10:53.993Z,14.55
2023-10-28T00:13:21.484Z,14.58
2023-10-28T00:15:49.094Z,14.62
2023-10-28T00:18:17.017Z,14.62
2023-10-28T00:20:45.658Z,14.59
2023-10-28T00:23:15.710Z,14.59
2023-10-28T00:25:44.047Z,14.64
2023-10-28T00:28:11.750Z,14.68
2023-10-28T00:30:40.501Z,14.69
2023-10-28T00:33:08.149Z,14.68
2023-10-28T00:35:37.741Z,14.69
2023-10-28T00:38:05.418Z,14.73
2023-10-28T00:40:33.138Z,14.77
2023-10-28T00:43:01.010Z,14.79
2023-10-28T00:45:28.922Z,14.77
2023-10-28T00:47:57.824Z,14.75
2023-10-28T00:50:25.558Z,14.79
2023-10-28T00:52:55.549Z,14.79
2023-10-28T00:55:24.585Z,14.77
2023-10-28T00:57:52.608Z,14.74
2023-10-28T01:00:22.392Z,14.76
2023-10-28T01:02:50.643Z,14.80
2023-10-28T01:05:18.584Z,14.81
2023-10-28T01:07:50.543Z,14.79
2023-10-28T01:10:32.167Z,14.80
2023-10-28T01:13:05.560Z,14.86
2023-10-28T01:15:33.352Z,14.87
2023-10-28T01:18:00.982Z,14.85
2023-10-28T01:20:28.655Z,14.83
2023-10-28T01:22:56.193Z,14.86
2023-10-28T01:25:24.139Z,14.90
2023-10-28T01:27:51.874Z,14.88
2023-10-28T01:30:19.746Z,14.87
2023-10-28T01:32:47.468Z,14.90
2023-10-28T01:35:15.465Z,14.94
2023-10-28T01:37:43.918Z,14.94
2023-10-28T01:40:15.207Z,14.93
2023-10-28T01:42:45.595Z,14.93
2023-10-28T01:45:16.787Z,14.98
2023-10-28T01:47:44.700Z,15.00
2023-10-28T01:50:12.941Z,14.99
2023-10-28T01:52:42.008Z,14.96
2023-10-28T01:55:11.093Z,14.97
2023-10-28T01:57:38.665Z,15.07
2023-10-28T02:00:09.171Z,15.12
2023-10-28T02:02:41.807Z,15.14
2023-10-28T02:05:10.047Z,15.17
2023-10-28T02:07:38.104Z,15.24
2023-10-28T02:10:06.572Z,15.28
2023-10-28T02:12:36.295Z,15.27
2023-10-28T02:15:05.350Z,15.26
2023-10-28T02:17:32.945Z,15.17
2023-10-28T02:20:00.558Z,15.08
2023-10-28T02:22:28.095Z,15.03
2023-10-28T02:24:55.595Z,14.86
2023-10-28T02:27:23.059Z,14.67
2023-10-28T02:29:50.805Z,14.50
2023-10-28T02:32:18.956Z,14.34
2023-10-28T02:34:46.771Z,14.19
2023-10-28T02:37:15.710Z,14.10
2023-10-28T02:39:43.523Z,14.00
2023-10-28T02:42:11.047Z,13.88
2023-10-28T02:44:38.561Z,13.78
2023-10-28T02:47:06.213Z,13.71
2023-10-28T02:49:37.273Z,13.73
2023-10-28T02:52:06.348Z,13.68
2023-10-28T02:54:35.434Z,13.61
2023-10-28T02:57:02.989Z,13.54
2023-10-28T02:59:30.996Z,13.53
2023-10-28T03:01:59.087Z,13.53
2023-10-28T03:04:26.858Z,13.50
2023-10-28T03:06:54.448Z,13.44
2023-10-28T03:09:22.098Z,13.40
2023-10-28T03:11:49.666Z,13.45
2023-10-28T03:14:17.291Z,13.44
2023-10-28T03:16:47.409Z,13.39
2023-10-28T03:19:15.036Z,13.34
2023-10-28T03:21:42.794Z,13.34
2023-10-28T03:24:10.414Z,13.36
2023-10-28T03:26:38.180Z,13.32
2023-10-28T03:29:07.784Z,13.25
2023-10-28T03:31:35.633Z,13.21
2023-10-28T03:34:03.390Z,13.24
2023-10-28T03:36:31.208Z,13.22
2023-10-28T03:38:59.857Z,13.16
2023-10-28T03:41:27.348Z,13.09
2023-10-28T03:43:54.913Z,13.07
2023-10-28T03:46:23.062Z,13.05
2023-10-28T03:48:51.681Z,13.00
2023-10-28T03:51:19.270Z,12.93
2023-10-28T03:53:46.750Z,12.87
2023-10-28T03:56:15.785Z,12.86
2023-10-28T03:58:43.469Z,12.80
2023-10-28T04:01:11.553Z,12.73
2023-10-28T04:03:39.116Z,12.69
2023-10-28T04:06:07.973Z,12.71
2023-10-28T04:08:35.644Z,12.70
2023-10-28T04:11:05.012Z,12.64
2023-10-28T04:13:33.650Z,12.62
2023-10-28T04:16:01.365Z,12.65
2023-10-28T04:18:28.881Z,12.65
2023-10-28T04:20:57.290Z,12.59
2023-10-28T04:23:24.842Z,12.56
2023-10-28T04:25:53.946Z,12.58
2023-10-28T04:28:21.592Z,12.55
2023-10-28T04:31:01.407Z,12.46
2023-10-28T04:33:29.356Z,12.40
2023-10-28T04:35:57.052Z,12.38
2023-10-28T04:38:24.890Z,12.26
2023-10-28T04:40:52.506Z,12.12
2023-10-28T04:43:21.174Z,12.04
2023-10-28T04:45:49.694Z,11.92
2023-10-28T04:48:17.460Z,11.74
2023-10-28T04:50:50.040Z,11.57
2023-10-28T04:53:17.829Z,11.41
2023-10-28T04:55:45.509Z,11.25
2023-10-28T04:58:13.460Z,11.08
2023-10-28T05:00:41.688Z,10.94
2023-10-28T05:03:09.462Z,10.84
2023-10-28T05:05:38.729Z,10.77
2023-10-28T05:08:06.523Z,10.63
2023-10-28T05:10:34.263Z,10.53
2023-10-28T05:13:01.833Z,10.43
2023-10-28T05:15:30.281Z,10.34
2023-10-28T12:29:20.351Z,14.66
2023-10-28T12:31:48.055Z,14.61
2023-10-28T12:34:15.677Z,14.14
2023-10-28T12:36:44.536Z,13.70
2023-10-28T12:39:12.055Z,13.34
2023-10-28T12:41:40.121Z,13.06
2023-10-28T12:44:07.919Z,12.87
2023-10-28T12:46:35.736Z,12.80
2023-10-28T12:49:03.227Z,12.81
2023-10-28T12:51:31.956Z,13.06
2023-10-28T12:54:02.005Z,13.55
2023-10-28T12:56:29.581Z,13.87
2023-10-28T12:58:57.536Z,13.79
2023-10-28T13:01:28.427Z,13.54
2023-10-28T13:03:58.814Z,13.25
2023-10-28T13:06:27.106Z,13.04
2023-10-28T13:08:54.601Z,12.88
2023-10-28T13:11:22.192Z,12.76
2023-10-28T13:13:50.046Z,12.75
2023-10-28T13:16:17.604Z,12.88
2023-10-28T13:18:45.296Z,13.17
2023-10-28T13:21:14.500Z,13.38
2023-10-28T13:23:43.108Z,13.40
2023-10-28T13:26:14.112Z,13.25
2023-10-28T13:28:43.826Z,12.99
2023-10-28T13:31:11.879Z,12.77
2023-10-28T13:33:40.409Z,12.61
2023-10-28T13:36:09.436Z,12.57
2023-10-28T13:38:36.967Z,12.57
2023-10-28T13:41:05.043Z,12.54
2023-10-28T13:43:33.117Z,12.50
2023-10-28T13:46:01.551Z,12.43
2023-10-28T13:48:29.690Z,12.34
2023-10-28T13:50:59.733Z,12.25
2023-10-28T13:53:27.508Z,12.14
2023-10-28T13:56:01.556Z,12.02
2023-10-28T13:58:30.052Z,11.93
2023-10-28T14:01:08.733Z,11.85
2023-10-28T14:03:37.075Z,11.78
2023-10-28T14:06:06.275Z,11.78
2023-10-28T14:08:34.080Z,11.75
2023-10-28T14:11:01.703Z,11.67
2023-10-28T14:13:31.189Z,11.59
2023-10-28T14:15:58.744Z,11.53
2023-10-28T14:18:27.079Z,11.47
2023-10-28T14:20:54.712Z,11.40
2023-10-28T14:23:23.901Z,11.41
2023-10-28T14:25:52.409Z,11.43
2023-10-28T14:28:19.896Z,11.41
2023-10-28T14:30:47.615Z,11.35
2023-10-28T14:33:16.599Z,11.29
2023-10-28T14:35:44.534Z,11.21
2023-10-28T14:38:12.036Z,11.16
2023-10-28T14:40:39.703Z,11.13
2023-10-28T14:43:07.234Z,11.16
2023-10-28T14:45:34.831Z,11.17
2023-10-28T14:48:02.394Z,11.16
2023-10-28T14:50:30.082Z,11.15
2023-10-28T14:52:57.692Z,11.14
2023-10-28T14:55:25.170Z,11.13
2023-10-28T14:58:07.338Z,11.12
2023-10-28T15:00:42.061Z,11.17
2023-10-28T15:03:09.657Z,11.21
2023-10-28T15:05:43.242Z,11.21
2023-10-28T15:08:14.111Z,11.19
2023-10-28T15:10:41.750Z,11.17
2023-10-28T15:13:09.265Z,11.15
2023-10-28T15:15:38.163Z,11.13
2023-10-28T15:18:06.473Z,11.15
2023-10-28T15:20:34.590Z,11.20
2023-10-28T15:23:02.283Z,11.20
2023-10-28T15:25:31.597Z,11.17
2023-10-28T15:27:59.297Z,11.15
2023-10-28T15:30:27.130Z,11.12
2023-10-28T15:32:54.947Z,11.09
2023-10-28T15:35:22.644Z,11.11
2023-10-28T15:37:51.812Z,11.16
2023-10-28T15:40:20.402Z,11.15
2023-10-28T15:42:48.592Z,11.14
2023-10-28T15:45:16.252Z,11.12
2023-10-28T15:47:43.942Z,11.11
2023-10-28T15:50:11.840Z,11.08
2023-10-28T15:52:39.401Z,11.10
2023-10-28T15:55:09.600Z,11.12
2023-10-28T15:57:37.195Z,11.09
2023-10-28T16:00:07.321Z,11.04
2023-10-28T16:02:35.177Z,11.00
2023-10-28T16:05:03.233Z,10.96
2023-10-28T16:07:30.925Z,10.97
2023-10-28T16:09:59.170Z,11.01
2023-10-28T16:12:26.895Z,10.99
2023-10-28T16:14:54.545Z,10.96
2023-10-28T16:17:22.091Z,10.93
2023-10-28T16:19:51.044Z,10.92
2023-10-28T16:22:18.784Z,10.98
2023-10-28T16:24:46.572Z,11.03
2023-10-28T16:27:15.868Z,11.04
2023-10-28T16:29:44.116Z,11.02
2023-10-28T16:32:11.714Z,10.99
2023-10-28T16:34:39.399Z,11.00
2023-10-28T16:37:06.897Z,11.04
2023-10-28T16:39:34.541Z,11.06
2023-10-28T16:42:02.197Z,11.03
2023-10-28T16:44:29.773Z,10.98
2023-10-28T16:46:57.308Z,10.97
2023-10-28T16:49:25.160Z,10.99
2023-10-28T16:51:52.665Z,10.94
2023-10-28T16:54:20.224Z,10.86
2023-10-28T16:56:49.352Z,10.81
2023-10-28T16:59:17.364Z,10.81
2023-10-28T17:01:46.885Z,10.82
2023-10-28T17:04:14.775Z,10.77
2023-10-28T17:06:42.479Z,10.70
2023-10-28T17:09:09.972Z,10.65
2023-10-28T17:11:37.645Z,10.65
2023-10-28T17:14:05.179Z,10.65
2023-10-28T17:16:32.686Z,10.61
2023-10-28T17:19:03.755Z,10.56
2023-10-28T17:21:32.066Z,10.54
2023-10-28T17:23:59.761Z,10.58
2023-10-28T17:26:28.402Z,10.59
2023-10-28T17:28:56.271Z,10.55
2023-10-28T17:31:23.835Z,10.53
2023-10-28T17:33:51.630Z,10.57
2023-10-28T17:36:19.298Z,10.61
2023-10-28T17:38:47.423Z,10.61
2023-10-28T17:41:16.425Z,10.62
2023-10-28T17:43:51.050Z,10.64
2023-10-28T17:46:18.645Z,10.71
2023-10-28T17:48:46.304Z,10.74
2023-10-28T17:51:15.008Z,10.73
2023-10-28T17:53:44.030Z,10.73
2023-10-28T17:56:11.691Z,10.74
2023-10-28T17:58:41.348Z,10.81
2023-10-28T18:01:08.961Z,10.82
2023-10-28T18:03:36.650Z,10.82
2023-10-28T18:06:06.222Z,10.81
2023-10-28T18:08:35.204Z,10.86
2023-10-28T18:11:02.876Z,10.94
2023-10-28T18:13:30.465Z,10.96
2023-10-28T18:15:58.051Z,10.95
2023-10-28T18:18:27.708Z,10.92
2023-10-28T18:20:55.248Z,10.89
2023-10-28T18:23:28.635Z,10.93
2023-10-28T18:25:56.609Z,10.96
2023-10-28T18:28:24.523Z,10.92
2023-10-28T18:30:52.174Z,10.88
2023-10-28T18:33:19.818Z,10.85
2023-10-28T18:35:48.763Z,10.87
2023-10-28T18:38:17.561Z,10.89
2023-10-28T18:40:45.402Z,10.86
2023-10-28T18:43:13.710Z,10.82
2023-10-28T18:45:41.237Z,10.79
2023-10-28T18:48:10.046Z,10.82
2023-10-28T18:50:40.681Z,10.86
2023-10-28T18:53:08.585Z,10.84
2023-10-28T18:55:38.554Z,10.81
2023-10-28T18:58:06.366Z,10.80
2023-10-28T19:00:34.061Z,10.83
2023-10-28T19:03:01.705Z,10.85
2023-10-28T19:05:29.381Z,10.86
2023-10-28T19:07:56.974Z,10.81
2023-10-28T19:10:24.541Z,10.76
2023-10-28T19:12:53.141Z,10.72
2023-10-28T19:15:20.698Z,10.74
2023-10-28T19:17:48.474Z,10.77
2023-10-28T19:20:16.315Z,10.74
2023-10-28T19:22:44.693Z,10.71
2023-10-28T19:25:16.042Z,10.68
2023-10-28T19:27:45.931Z,10.66
2023-10-28T19:30:13.977Z,10.70
2023-10-28T19:32:41.643Z,10.75
2023-10-28T19:35:12.984Z,10.74
2023-10-28T19:37:41.885Z,10.71
2023-10-28T19:40:09.979Z,10.66
2023-10-28T19:42:37.718Z,10.62
2023-10-28T19:45:05.920Z,10.64
2023-10-28T19:47:33.718Z,10.67
2023-10-28T19:50:01.700Z,10.65
2023-10-28T19:52:29.263Z,10.61
2023-10-28T19:54:59.101Z,10.61
2023-10-28T19:57:28.061Z,10.60
2023-10-28T19:59:55.593Z,10.65
2023-10-28T20:02:23.494Z,10.68
2023-10-28T20:04:51.293Z,10.70
2023-10-28T20:07:18.997Z,10.68
2023-10-28T20:09:47.870Z,10.67
2023-10-28T20:12:15.496Z,10.65
2023-10-28T20:14:44.513Z,10.68
2023-10-28T20:17:13.553Z,10.72
2023-10-28T20:19:41.205Z,10.72
2023-10-28T20:22:10.598Z,10.70
2023-10-28T20:24:38.210Z,10.66
2023-10-28T20:27:06.141Z,10.61
2023-10-28T20:29:40.097Z,10.61
2023-10-28T20:32:08.148Z,10.62
2023-10-28T20:34:35.901Z,10.60
2023-10-28T20:37:03.599Z,10.58
2023-10-28T20:39:31.308Z,10.55
2023-10-28T20:41:58.941Z,10.54
2023-10-28T20:44:26.461Z,10.56
2023-10-28T20:46:54.714Z,10.56
2023-10-28T20:49:23.862Z,10.49
2023-10-28T20:51:51.688Z,10.40
2023-10-28T20:54:20.170Z,10.32
2023-10-28T20:56:47.778Z,10.24
2023-10-28T20:59:15.472Z,10.22
2023-10-28T21:01:43.201Z,10.20
2023-10-28T21:04:10.840Z,10.15
2023-10-28T21:06:39.213Z,10.07
2023-10-28T21:09:06.778Z,10.03
2023-10-28T21:11:34.351Z,10.04
2023-10-28T21:14:03.299Z,10.08
2023-10-28T21:16:36.947Z,10.06
2023-10-28T21:19:05.026Z,10.02
2023-10-28T21:21:33.668Z,9.99
2023-10-28T21:24:02.558Z,10.03
2023-10-28T21:26:30.429Z,10.10
2023-10-28T21:28:58.273Z,10.10
2023-10-28T21:31:25.761Z,10.08
2023-10-28T21:33:53.338Z,10.05
2023-10-28T21:36:21.097Z,10.08
2023-10-28T21:38:48.786Z,10.10
2023-10-28T21:41:16.367Z,10.07
2023-10-28T21:43:43.977Z,9.98
2023-10-28T21:46:11.597Z,9.91
2023-10-28T21:48:39.233Z,9.92
2023-10-28T21:51:07.493Z,9.95
2023-10-28T21:53:35.180Z,9.94
2023-10-28T21:56:03.343Z,9.91
2023-10-28T21:58:30.937Z,9.89
2023-10-28T22:00:58.469Z,9.91
2023-10-28T22:03:26.614Z,9.94
2023-10-28T22:05:54.420Z,9.93
2023-10-28T22:08:21.971Z,9.89
2023-10-28T22:10:50.950Z,9.85
2023-10-28T22:13:18.736Z,9.87
2023-10-28T22:15:46.424Z,9.89
2023-10-28T22:18:17.077Z,9.85
2023-10-28T22:20:45.962Z,9.77
2023-10-28T22:23:13.688Z,9.72
2023-10-28T22:25:41.438Z,9.73
2023-10-28T22:28:15.285Z,9.74
2023-10-28T22:30:46.498Z,9.69
2023-10-28T22:33:15.030Z,9.63
2023-10-28T22:35:42.987Z,9.57
2023-10-28T22:38:13.377Z,9.58
2023-10-28T22:40:43.612Z,9.62
2023-10-28T22:43:11.533Z,9.60
2023-10-28T22:45:39.065Z,9.55
2023-10-28T22:48:06.782Z,9.50
2023-10-28T22:50:34.745Z,9.51
2023-10-28T22:53:02.908Z,9.52
2023-10-28T22:55:30.528Z,9.48
2023-10-28T22:57:58.470Z,9.44
2023-10-28T23:00:28.249Z,9.39
2023-10-28T23:02:55.964Z,9.38
2023-10-28T23:05:23.635Z,9.37
2023-10-28T23:07:54.132Z,9.37
2023-10-28T23:10:21.620Z,9.38
2023-10-28T23:12:49.086Z,9.44
2023-10-28T23:15:16.649Z,9.40
2023-10-28T23:17:44.438Z,9.45
2023-10-28T23:20:14.497Z,9.45
2023-10-28T23:22:42.214Z,9.49
2023-10-28T23:25:10.730Z,9.53
2023-10-28T23:27:38.353Z,9.54
2023-10-28T23:30:07.451Z,9.51
2023-10-28T23:32:35.067Z,9.48
2023-10-28T23:35:02.716Z,9.53
2023-10-28T23:37:34.352Z,9.61
2023-10-28T23:40:06.485Z,9.66
2023-10-28T23:42:34.429Z,9.67
2023-10-28T23:45:02.540Z,9.66
2023-10-28T23:47:30.156Z,9.69
2023-10-28T23:49:57.865Z,9.76
2023-10-28T23:52:25.379Z,9.78
2023-10-28T23:54:52.989Z,9.74
2023-10-28T23:57:20.467Z,9.72
2023-10-28T23:59:48.611Z,9.77
